Terminal Aerodrome Forecast
Issued by NWS Sterling, VA

Current Version | Previous Version | Graphics & Text | Print | Product List | Glossary On
Versions: 1 2 3 4 5 6 7 8 9 10 11 12 13 14 15 16 17 18 19 20 21 22 23 24 25 26 27 28 29 30 31 32 33 34 35
000
FTUS41 KLWX 020200 AAB
TAFIAD
TAF AMD
KIAD 020200Z 0202/0306 32008KT 5SM -SHRA OVC050
     FM020500 36005KT 5SM -SHRA BR OVC015
     FM020700 01006KT 3SM -SHRA BR OVC008
     FM021300 01006KT 5SM BR OVC008
     FM021500 01007KT P6SM OVC020
     FM030100 04005KT P6SM OVC010=

USA.gov is the U.S. government's official web portal to all federal, state and local government web resources and services.